Green River, UT (84515)

3:31 PM MDT on August 29, 2015 (GMT -0600)
Castle Valley | | Change Station
CLOSE
Current Station
Personal Weather Station
Location: Castle Valley, UT
Elevation: 4833 ft
Nearby Weather Stations

Elev 4833 ft 38.63 °N, 109.39 °W | Updated 7 minutes ago

Clear
Clear
92.8 °F
Feels Like 89 °F
N
7.3
Wind Variable Wind from West

Today
High -- | Low -- °F
--% Chance of Precip.
Yesterday
High -- | Low -- °F
Precip. -- in
6:43 AM 7:52 PM
Full, 100% visible
Pressure 29.91 in
Visibility 10.0 miles
Clouds Clear
Heat Index 89 °F
Dew Point 44 °F
Humidity 19%
Rainfall 0.00 in
Snow Depth Not available.
UV 9 out of 12
Pollen 9.90 out of 12
Air Quality Not available.
Flu Activity Not available.
METAR KCNY 292053Z AUTO 04004KT 10SM CLR 34/04 A3010 RMK AO2 SLP127 T03390039 58019
Pressure 29.91 in
Visibility 10.0 miles
Clouds Clear
Heat Index 89 °F
Dew Point 44 °F
Humidity 19%
Rainfall 0.00 in
Snow Depth Not available.
UV 9 out of 12
Pollen 9.90 out of 12
Air Quality Not available.
Flu Activity Not available.
METAR KCNY 292053Z AUTO 04004KT 10SM CLR 34/04 A3010 RMK AO2 SLP127 T03390039 58019

10-Day Weather Forecast

×

Almanac

Astronomy

Aug. 29, 2015 Rise Set
Actual Time
Civil Twilight
Nautical Twilight
Astronomical Twilight
Moon
Length of Visible Light
Length of Day
Tomorrow will be .
, % of the Moon is Illuminated

Today's Extremes

State Highs State Lows

Community

WunderPhotos

Upload Photos

1,850,799 photos uploaded!

WunderBlogs® & News

Nearby

Air Quality

  Air Quality AQ Index Pollutant
Not available.

Snow Depth

Station Depth Elevation

Earthquake Activity

City Distance Mag. Time & Date
Minimum magnitude displayed is 2.5.

Coastal Water Temperatures

Place Temperature

Stations

Nearby Weather Stations

Station Location Temp. Windchill Dew Point Humidity Wind Precip. Elev Updated Type